sensor_id;sensor_type;location;lat;lon;timestamp;P1;durP1;ratioP1;P2;durP2;ratioP2
65463;SDS011;52063;45.110;9.870;2022-12-31T00:01:28;27.58;;;16.25;;
65463;SDS011;52063;45.110;9.870;2022-12-31T00:03:54;26.27;;;15.80;;
65463;SDS011;52063;45.110;9.870;2022-12-31T00:06:22;25.55;;;15.63;;
65463;SDS011;52063;45.110;9.870;2022-12-31T00:08:48;26.70;;;16.90;;
65463;SDS011;52063;45.110;9.870;2022-12-31T00:11:15;26.00;;;16.48;;
65463;SDS011;52063;45.110;9.870;2022-12-31T00:13:41;27.57;;;16.40;;
65463;SDS011;52063;45.110;9.870;2022-12-31T00:16:11;26.30;;;16.23;;
65463;SDS011;52063;45.110;9.870;2022-12-31T00:18:40;23.42;;;16.17;;
65463;SDS011;52063;45.110;9.870;2022-12-31T00:21:07;28.48;;;16.73;;
65463;SDS011;52063;45.110;9.870;2022-12-31T00:23:33;24.23;;;16.17;;
65463;SDS011;52063;45.110;9.870;2022-12-31T00:26:03;23.80;;;15.50;;
65463;SDS011;52063;45.110;9.870;2022-12-31T00:28:29;25.05;;;15.88;;
65463;SDS011;52063;45.110;9.870;2022-12-31T00:30:55;24.75;;;15.73;;
65463;SDS011;52063;45.110;9.870;2022-12-31T00:33:20;26.43;;;15.93;;
65463;SDS011;52063;45.110;9.870;2022-12-31T00:35:46;25.93;;;16.37;;
65463;SDS011;52063;45.110;9.870;2022-12-31T00:38:11;26.20;;;15.70;;
65463;SDS011;52063;45.110;9.870;2022-12-31T00:40:37;24.63;;;15.38;;
65463;SDS011;52063;45.110;9.870;2022-12-31T00:43:02;25.20;;;16.77;;
65463;SDS011;52063;45.110;9.870;2022-12-31T00:45:27;25.93;;;17.10;;
65463;SDS011;52063;45.110;9.870;2022-12-31T00:47:53;25.50;;;15.80;;
65463;SDS011;52063;45.110;9.870;2022-12-31T00:50:18;24.08;;;16.10;;
65463;SDS011;52063;45.110;9.870;2022-12-31T00:52:44;25.10;;;15.23;;
65463;SDS011;52063;45.110;9.870;2022-12-31T00:55:09;26.70;;;15.87;;
65463;SDS011;52063;45.110;9.870;2022-12-31T00:57:35;22.93;;;15.00;;
65463;SDS011;52063;45.110;9.870;2022-12-31T01:00:00;24.73;;;15.43;;
65463;SDS011;52063;45.110;9.870;2022-12-31T01:02:25;25.07;;;16.10;;
65463;SDS011;52063;45.110;9.870;2022-12-31T01:04:51;24.30;;;15.87;;
65463;SDS011;52063;45.110;9.870;2022-12-31T01:07:16;24.47;;;15.97;;
65463;SDS011;52063;45.110;9.870;2022-12-31T01:09:42;25.47;;;16.47;;
65463;SDS011;52063;45.110;9.870;2022-12-31T01:12:07;23.03;;;15.57;;
65463;SDS011;52063;45.110;9.870;2022-12-31T01:14:33;22.87;;;15.27;;
65463;SDS011;52063;45.110;9.870;2022-12-31T01:16:58;24.45;;;16.13;;
65463;SDS011;52063;45.110;9.870;2022-12-31T01:19:25;24.17;;;15.00;;
65463;SDS011;52063;45.110;9.870;2022-12-31T01:21:52;23.48;;;15.93;;
65463;SDS011;52063;45.110;9.870;2022-12-31T01:24:18;23.27;;;16.23;;
65463;SDS011;52063;45.110;9.870;2022-12-31T01:26:44;22.47;;;15.00;;
65463;SDS011;52063;45.110;9.870;2022-12-31T01:29:10;24.58;;;16.73;;
65463;SDS011;52063;45.110;9.870;2022-12-31T01:31:37;23.52;;;14.88;;
65463;SDS011;52063;45.110;9.870;2022-12-31T01:34:03;24.43;;;15.40;;
65463;SDS011;52063;45.110;9.870;2022-12-31T01:36:30;23.45;;;15.43;;
65463;SDS011;52063;45.110;9.870;2022-12-31T01:38:58;21.73;;;15.55;;
65463;SDS011;52063;45.110;9.870;2022-12-31T01:41:25;21.23;;;14.95;;
65463;SDS011;52063;45.110;9.870;2022-12-31T01:43:56;22.00;;;15.13;;
65463;SDS011;52063;45.110;9.870;2022-12-31T01:46:57;21.47;;;15.00;;
65463;SDS011;52063;45.110;9.870;2022-12-31T01:49:38;23.65;;;15.95;;
65463;SDS011;52063;45.110;9.870;2022-12-31T01:52:19;22.77;;;14.75;;
65463;SDS011;52063;45.110;9.870;2022-12-31T01:54:51;24.63;;;15.85;;
65463;SDS011;52063;45.110;9.870;2022-12-31T01:57:19;23.08;;;15.15;;
65463;SDS011;52063;45.110;9.870;2022-12-31T01:59:46;23.60;;;15.07;;
65463;SDS011;52063;45.110;9.870;2022-12-31T02:02:11;22.45;;;15.60;;
65463;SDS011;52063;45.110;9.870;2022-12-31T02:04:38;21.20;;;15.03;;
65463;SDS011;52063;45.110;9.870;2022-12-31T02:07:07;20.60;;;13.75;;
65463;SDS011;52063;45.110;9.870;2022-12-31T02:09:33;22.50;;;14.70;;
65463;SDS011;52063;45.110;9.870;2022-12-31T02:12:00;22.27;;;15.43;;
65463;SDS011;52063;45.110;9.870;2022-12-31T02:14:27;22.03;;;15.13;;
65463;SDS011;52063;45.110;9.870;2022-12-31T02:16:58;22.15;;;15.18;;
65463;SDS011;52063;45.110;9.870;2022-12-31T02:22:14;21.17;;;14.95;;
65463;SDS011;52063;45.110;9.870;2022-12-31T02:25:08;21.87;;;15.27;;
65463;SDS011;52063;45.110;9.870;2022-12-31T02:27:54;22.02;;;14.80;;
65463;SDS011;52063;45.110;9.870;2022-12-31T02:30:26;20.10;;;14.85;;
65463;SDS011;52063;45.110;9.870;2022-12-31T02:35:52;21.08;;;14.32;;
65463;SDS011;52063;45.110;9.870;2022-12-31T02:40:51;23.13;;;14.98;;
65463;SDS011;52063;45.110;9.870;2022-12-31T02:43:19;22.17;;;14.77;;
65463;SDS011;52063;45.110;9.870;2022-12-31T02:45:49;21.83;;;14.40;;
65463;SDS011;52063;45.110;9.870;2022-12-31T02:48:39;19.17;;;14.27;;
65463;SDS011;52063;45.110;9.870;2022-12-31T02:59:20;18.67;;;13.10;;
65463;SDS011;52063;45.110;9.870;2022-12-31T03:02:12;18.42;;;13.32;;
65463;SDS011;52063;45.110;9.870;2022-12-31T03:04:53;20.95;;;14.30;;
65463;SDS011;52063;45.110;9.870;2022-12-31T03:07:21;20.55;;;14.75;;
65463;SDS011;52063;45.110;9.870;2022-12-31T03:09:48;19.37;;;13.23;;
65463;SDS011;52063;45.110;9.870;2022-12-31T03:12:13;20.88;;;13.98;;
65463;SDS011;52063;45.110;9.870;2022-12-31T03:15:21;20.38;;;13.85;;
65463;SDS011;52063;45.110;9.870;2022-12-31T03:20:17;18.42;;;13.80;;
65463;SDS011;52063;45.110;9.870;2022-12-31T03:23:03;18.90;;;14.03;;
65463;SDS011;52063;45.110;9.870;2022-12-31T03:25:30;20.05;;;14.80;;
65463;SDS011;52063;45.110;9.870;2022-12-31T03:28:09;19.98;;;14.80;;
65463;SDS011;52063;45.110;9.870;2022-12-31T03:30:37;19.83;;;14.43;;
65463;SDS011;52063;45.110;9.870;2022-12-31T03:33:03;22.85;;;14.70;;
65463;SDS011;52063;45.110;9.870;2022-12-31T03:35:30;19.03;;;14.67;;
65463;SDS011;52063;45.110;9.870;2022-12-31T03:37:56;16.17;;;12.68;;
65463;SDS011;52063;45.110;9.870;2022-12-31T03:40:23;17.83;;;13.63;;
65463;SDS011;52063;45.110;9.870;2022-12-31T03:42:49;20.23;;;14.18;;
65463;SDS011;52063;45.110;9.870;2022-12-31T03:45:15;20.30;;;14.63;;
65463;SDS011;52063;45.110;9.870;2022-12-31T03:47:40;18.83;;;13.18;;
65463;SDS011;52063;45.110;9.870;2022-12-31T03:50:07;16.77;;;12.37;;
65463;SDS011;52063;45.110;9.870;2022-12-31T03:52:33;17.25;;;13.52;;
65463;SDS011;52063;45.110;9.870;2022-12-31T03:54:59;16.37;;;12.70;;
65463;SDS011;52063;45.110;9.870;2022-12-31T03:57:26;17.77;;;13.15;;
65463;SDS011;52063;45.110;9.870;2022-12-31T03:59:52;18.60;;;13.55;;
65463;SDS011;52063;45.110;9.870;2022-12-31T04:02:17;20.20;;;13.90;;
65463;SDS011;52063;45.110;9.870;2022-12-31T04:04:43;19.73;;;14.23;;
65463;SDS011;52063;45.110;9.870;2022-12-31T04:07:08;17.15;;;12.73;;
65463;SDS011;52063;45.110;9.870;2022-12-31T04:09:34;18.20;;;13.53;;
65463;SDS011;52063;45.110;9.870;2022-12-31T04:11:59;18.77;;;13.93;;
65463;SDS011;52063;45.110;9.870;2022-12-31T04:14:26;18.83;;;13.77;;
65463;SDS011;52063;45.110;9.870;2022-12-31T04:16:52;18.07;;;13.30;;
65463;SDS011;52063;45.110;9.870;2022-12-31T04:19:17;18.80;;;13.98;;
65463;SDS011;52063;45.110;9.870;2022-12-31T04:21:43;17.00;;;12.93;;
65463;SDS011;52063;45.110;9.870;2022-12-31T04:24:08;16.60;;;12.67;;
65463;SDS011;52063;45.110;9.870;2022-12-31T04:26:35;17.77;;;12.93;;
65463;SDS011;52063;45.110;9.870;2022-12-31T04:29:00;17.92;;;13.70;;
65463;SDS011;52063;45.110;9.870;2022-12-31T04:31:26;15.77;;;12.27;;
65463;SDS011;52063;45.110;9.870;2022-12-31T04:33:52;18.38;;;13.10;;
65463;SDS011;52063;45.110;9.870;2022-12-31T04:36:17;15.77;;;12.43;;
65463;SDS011;52063;45.110;9.870;2022-12-31T04:38:43;18.17;;;12.90;;
65463;SDS011;52063;45.110;9.870;2022-12-31T04:41:08;15.87;;;12.40;;
65463;SDS011;52063;45.110;9.870;2022-12-31T04:43:47;15.40;;;11.75;;
65463;SDS011;52063;45.110;9.870;2022-12-31T04:46:14;16.80;;;12.10;;
65463;SDS011;52063;45.110;9.870;2022-12-31T04:48:41;16.58;;;12.75;;
65463;SDS011;52063;45.110;9.870;2022-12-31T04:51:07;16.88;;;12.93;;
65463;SDS011;52063;45.110;9.870;2022-12-31T04:53:32;17.83;;;12.00;;
65463;SDS011;52063;45.110;9.870;2022-12-31T04:55:57;15.67;;;12.73;;
65463;SDS011;52063;45.110;9.870;2022-12-31T04:58:23;18.55;;;13.63;;
65463;SDS011;52063;45.110;9.870;2022-12-31T05:00:49;15.57;;;12.10;;
65463;SDS011;52063;45.110;9.870;2022-12-31T05:03:16;16.58;;;12.18;;
65463;SDS011;52063;45.110;9.870;2022-12-31T05:05:42;17.50;;;13.23;;
65463;SDS011;52063;45.110;9.870;2022-12-31T05:08:08;17.55;;;12.48;;
65463;SDS011;52063;45.110;9.870;2022-12-31T05:10:39;16.73;;;12.82;;
65463;SDS011;52063;45.110;9.870;2022-12-31T05:13:06;16.58;;;12.57;;
65463;SDS011;52063;45.110;9.870;2022-12-31T05:15:31;16.97;;;12.30;;
65463;SDS011;52063;45.110;9.870;2022-12-31T05:17:57;14.57;;;11.53;;
65463;SDS011;52063;45.110;9.870;2022-12-31T05:20:24;16.98;;;13.18;;
65463;SDS011;52063;45.110;9.870;2022-12-31T05:22:50;16.15;;;12.60;;
65463;SDS011;52063;45.110;9.870;2022-12-31T05:25:15;15.77;;;13.00;;
65463;SDS011;52063;45.110;9.870;2022-12-31T05:27:41;16.13;;;11.60;;
65463;SDS011;52063;45.110;9.870;2022-12-31T05:30:06;16.20;;;12.90;;
65463;SDS011;52063;45.110;9.870;2022-12-31T05:32:32;15.20;;;12.35;;
65463;SDS011;52063;45.110;9.870;2022-12-31T05:34:58;16.52;;;13.02;;
65463;SDS011;52063;45.110;9.870;2022-12-31T05:37:26;17.17;;;12.75;;
65463;SDS011;52063;45.110;9.870;2022-12-31T05:39:53;17.90;;;12.77;;
65463;SDS011;52063;45.110;9.870;2022-12-31T05:42:18;16.00;;;12.77;;
65463;SDS011;52063;45.110;9.870;2022-12-31T05:44:43;15.20;;;12.50;;
65463;SDS011;52063;45.110;9.870;2022-12-31T05:47:09;15.53;;;12.83;;
65463;SDS011;52063;45.110;9.870;2022-12-31T05:49:34;16.80;;;13.17;;
65463;SDS011;52063;45.110;9.870;2022-12-31T05:52:00;16.27;;;12.47;;
65463;SDS011;52063;45.110;9.870;2022-12-31T05:54:25;14.33;;;11.40;;
65463;SDS011;52063;45.110;9.870;2022-12-31T05:56:51;15.73;;;12.70;;
65463;SDS011;52063;45.110;9.870;2022-12-31T05:59:16;16.15;;;12.32;;
65463;SDS011;52063;45.110;9.870;2022-12-31T06:01:42;16.70;;;12.53;;
65463;SDS011;52063;45.110;9.870;2022-12-31T06:04:07;16.60;;;12.20;;
65463;SDS011;52063;45.110;9.870;2022-12-31T06:06:33;14.90;;;11.85;;
65463;SDS011;52063;45.110;9.870;2022-12-31T06:08:58;17.07;;;11.80;;
65463;SDS011;52063;45.110;9.870;2022-12-31T06:11:23;15.90;;;12.37;;
65463;SDS011;52063;45.110;9.870;2022-12-31T06:13:49;15.87;;;12.10;;
65463;SDS011;52063;45.110;9.870;2022-12-31T06:16:14;14.00;;;12.23;;
65463;SDS011;52063;45.110;9.870;2022-12-31T06:18:40;15.77;;;12.03;;
65463;SDS011;52063;45.110;9.870;2022-12-31T06:21:05;17.57;;;12.63;;
65463;SDS011;52063;45.110;9.870;2022-12-31T06:23:31;15.18;;;11.38;;
65463;SDS011;52063;45.110;9.870;2022-12-31T06:26:00;14.93;;;12.73;;
65463;SDS011;52063;45.110;9.870;2022-12-31T06:28:26;15.20;;;11.95;;
65463;SDS011;52063;45.110;9.870;2022-12-31T06:30:57;15.40;;;12.05;;
65463;SDS011;52063;45.110;9.870;2022-12-31T06:33:26;13.80;;;12.27;;
65463;SDS011;52063;45.110;9.870;2022-12-31T06:35:55;17.50;;;12.40;;
65463;SDS011;52063;45.110;9.870;2022-12-31T06:38:21;14.90;;;11.77;;
65463;SDS011;52063;45.110;9.870;2022-12-31T06:40:47;15.05;;;12.15;;
65463;SDS011;52063;45.110;9.870;2022-12-31T06:43:13;13.03;;;10.70;;
65463;SDS011;52063;45.110;9.870;2022-12-31T06:45:39;15.55;;;11.20;;
65463;SDS011;52063;45.110;9.870;2022-12-31T06:48:05;14.70;;;11.80;;
65463;SDS011;52063;45.110;9.870;2022-12-31T06:50:31;13.70;;;10.95;;
65463;SDS011;52063;45.110;9.870;2022-12-31T06:52:56;13.83;;;10.67;;
65463;SDS011;52063;45.110;9.870;2022-12-31T06:55:22;15.35;;;11.27;;
65463;SDS011;52063;45.110;9.870;2022-12-31T06:57:48;14.60;;;11.20;;
65463;SDS011;52063;45.110;9.870;2022-12-31T07:00:14;13.73;;;11.05;;
65463;SDS011;52063;45.110;9.870;2022-12-31T07:08:03;11.85;;;9.48;;
65463;SDS011;52063;45.110;9.870;2022-12-31T07:18:58;10.43;;;8.27;;
65463;SDS011;52063;45.110;9.870;2022-12-31T07:21:35;9.25;;;7.63;;
65463;SDS011;52063;45.110;9.870;2022-12-31T07:24:03;9.48;;;7.97;;
65463;SDS011;52063;45.110;9.870;2022-12-31T07:29:27;8.93;;;8.02;;
65463;SDS011;52063;45.110;9.870;2022-12-31T07:32:07;9.20;;;8.20;;
65463;SDS011;52063;45.110;9.870;2022-12-31T07:46:06;9.63;;;7.93;;
65463;SDS011;52063;45.110;9.870;2022-12-31T07:48:51;9.52;;;8.40;;
65463;SDS011;52063;45.110;9.870;2022-12-31T07:51:17;11.10;;;8.95;;
65463;SDS011;52063;45.110;9.870;2022-12-31T07:53:42;9.37;;;7.83;;
65463;SDS011;52063;45.110;9.870;2022-12-31T07:56:08;11.10;;;8.80;;
65463;SDS011;52063;45.110;9.870;2022-12-31T08:01:03;10.43;;;8.70;;
65463;SDS011;52063;45.110;9.870;2022-12-31T08:09:24;9.27;;;8.00;;
65463;SDS011;52063;45.110;9.870;2022-12-31T08:11:58;9.17;;;8.10;;
65463;SDS011;52063;45.110;9.870;2022-12-31T08:14:25;11.15;;;8.25;;
65463;SDS011;52063;45.110;9.870;2022-12-31T08:16:52;10.18;;;8.63;;
65463;SDS011;52063;45.110;9.870;2022-12-31T08:19:24;10.80;;;8.95;;
65463;SDS011;52063;45.110;9.870;2022-12-31T08:21:59;10.25;;;9.07;;
65463;SDS011;52063;45.110;9.870;2022-12-31T08:27:11;13.35;;;8.90;;
65463;SDS011;52063;45.110;9.870;2022-12-31T08:35:17;14.63;;;10.45;;
65463;SDS011;52063;45.110;9.870;2022-12-31T08:45:51;16.48;;;13.27;;
65463;SDS011;52063;45.110;9.870;2022-12-31T08:51:03;17.00;;;13.97;;
65463;SDS011;52063;45.110;9.870;2022-12-31T08:53:31;17.80;;;14.52;;
65463;SDS011;52063;45.110;9.870;2022-12-31T08:56:04;19.70;;;13.80;;
65463;SDS011;52063;45.110;9.870;2022-12-31T08:58:56;17.73;;;15.15;;
65463;SDS011;52063;45.110;9.870;2022-12-31T09:01:23;19.42;;;16.17;;
65463;SDS011;52063;45.110;9.870;2022-12-31T09:07:08;23.60;;;17.58;;
65463;SDS011;52063;45.110;9.870;2022-12-31T09:17:30;20.93;;;16.23;;
65463;SDS011;52063;45.110;9.870;2022-12-31T09:20:03;20.17;;;16.15;;
65463;SDS011;52063;45.110;9.870;2022-12-31T09:22:29;22.70;;;18.40;;
65463;SDS011;52063;45.110;9.870;2022-12-31T09:24:55;23.17;;;18.70;;
65463;SDS011;52063;45.110;9.870;2022-12-31T09:27:27;23.10;;;18.20;;
65463;SDS011;52063;45.110;9.870;2022-12-31T09:38:15;25.45;;;20.30;;
65463;SDS011;52063;45.110;9.870;2022-12-31T10:08:37;27.38;;;21.15;;
65463;SDS011;52063;45.110;9.870;2022-12-31T10:14:36;28.85;;;24.13;;
65463;SDS011;52063;45.110;9.870;2022-12-31T10:17:17;26.67;;;21.20;;
65463;SDS011;52063;45.110;9.870;2022-12-31T10:30:55;27.60;;;21.20;;
65463;SDS011;52063;45.110;9.870;2022-12-31T10:36:18;30.23;;;24.40;;
65463;SDS011;52063;45.110;9.870;2022-12-31T10:39:28;30.23;;;23.60;;
65463;SDS011;52063;45.110;9.870;2022-12-31T10:47:18;30.73;;;23.75;;
65463;SDS011;52063;45.110;9.870;2022-12-31T10:50:16;30.67;;;24.90;;
65463;SDS011;52063;45.110;9.870;2022-12-31T11:01:46;30.08;;;24.15;;
65463;SDS011;52063;45.110;9.870;2022-12-31T11:20:39;31.85;;;23.48;;
65463;SDS011;52063;45.110;9.870;2022-12-31T11:26:10;31.37;;;24.57;;
65463;SDS011;52063;45.110;9.870;2022-12-31T11:28:43;31.00;;;23.42;;
65463;SDS011;52063;45.110;9.870;2022-12-31T11:39:32;31.47;;;24.73;;
65463;SDS011;52063;45.110;9.870;2022-12-31T11:47:39;30.48;;;24.05;;
65463;SDS011;52063;45.110;9.870;2022-12-31T11:56:19;33.35;;;24.13;;
65463;SDS011;52063;45.110;9.870;2022-12-31T11:58:50;29.58;;;22.88;;
65463;SDS011;52063;45.110;9.870;2022-12-31T12:03:54;29.77;;;23.50;;
65463;SDS011;52063;45.110;9.870;2022-12-31T12:06:22;31.53;;;24.97;;
65463;SDS011;52063;45.110;9.870;2022-12-31T12:08:51;30.95;;;25.15;;
65463;SDS011;52063;45.110;9.870;2022-12-31T12:11:23;29.63;;;23.23;;
65463;SDS011;52063;45.110;9.870;2022-12-31T12:13:50;31.27;;;25.00;;
65463;SDS011;52063;45.110;9.870;2022-12-31T12:16:16;31.17;;;24.63;;
65463;SDS011;52063;45.110;9.870;2022-12-31T12:18:48;33.40;;;26.25;;
65463;SDS011;52063;45.110;9.870;2022-12-31T12:21:16;32.30;;;24.67;;
65463;SDS011;52063;45.110;9.870;2022-12-31T12:23:56;30.70;;;25.02;;
65463;SDS011;52063;45.110;9.870;2022-12-31T12:26:33;31.80;;;25.08;;
65463;SDS011;52063;45.110;9.870;2022-12-31T12:29:11;31.15;;;23.63;;
65463;SDS011;52063;45.110;9.870;2022-12-31T12:31:41;33.10;;;25.52;;
65463;SDS011;52063;45.110;9.870;2022-12-31T12:34:21;31.63;;;24.73;;
65463;SDS011;52063;45.110;9.870;2022-12-31T12:36:50;30.15;;;22.90;;
65463;SDS011;52063;45.110;9.870;2022-12-31T12:39:23;33.13;;;24.58;;
65463;SDS011;52063;45.110;9.870;2022-12-31T12:42:00;32.03;;;24.13;;
65463;SDS011;52063;45.110;9.870;2022-12-31T12:44:29;31.10;;;23.80;;
65463;SDS011;52063;45.110;9.870;2022-12-31T12:46:55;32.88;;;25.55;;
65463;SDS011;52063;45.110;9.870;2022-12-31T12:57:25;32.05;;;24.15;;
65463;SDS011;52063;45.110;9.870;2022-12-31T13:00:14;32.42;;;24.02;;
65463;SDS011;52063;45.110;9.870;2022-12-31T13:16:05;30.33;;;22.57;;
65463;SDS011;52063;45.110;9.870;2022-12-31T13:18:41;28.27;;;21.95;;
65463;SDS011;52063;45.110;9.870;2022-12-31T13:24:03;30.67;;;21.58;;
65463;SDS011;52063;45.110;9.870;2022-12-31T13:29:27;28.30;;;21.97;;
65463;SDS011;52063;45.110;9.870;2022-12-31T13:31:55;28.98;;;22.10;;
65463;SDS011;52063;45.110;9.870;2022-12-31T13:34:23;32.58;;;22.88;;
65463;SDS011;52063;45.110;9.870;2022-12-31T13:36:51;31.08;;;22.23;;
65463;SDS011;52063;45.110;9.870;2022-12-31T13:39:26;30.13;;;22.35;;
65463;SDS011;52063;45.110;9.870;2022-12-31T13:41:58;29.60;;;20.70;;
65463;SDS011;52063;45.110;9.870;2022-12-31T13:44:31;28.17;;;21.77;;
65463;SDS011;52063;45.110;9.870;2022-12-31T13:47:14;32.60;;;21.35;;
65463;SDS011;52063;45.110;9.870;2022-12-31T13:49:45;26.95;;;21.33;;
65463;SDS011;52063;45.110;9.870;2022-12-31T13:55:11;29.27;;;21.17;;
65463;SDS011;52063;45.110;9.870;2022-12-31T13:57:48;28.42;;;21.08;;
65463;SDS011;52063;45.110;9.870;2022-12-31T14:05:18;28.05;;;20.75;;
65463;SDS011;52063;45.110;9.870;2022-12-31T14:07:58;30.17;;;21.70;;
65463;SDS011;52063;45.110;9.870;2022-12-31T14:19:17;26.10;;;18.63;;
65463;SDS011;52063;45.110;9.870;2022-12-31T14:21:53;27.07;;;19.73;;
65463;SDS011;52063;45.110;9.870;2022-12-31T14:27:07;24.17;;;18.92;;
65463;SDS011;52063;45.110;9.870;2022-12-31T14:29:45;24.92;;;18.15;;
65463;SDS011;52063;45.110;9.870;2022-12-31T14:35:16;26.23;;;18.63;;
65463;SDS011;52063;45.110;9.870;2022-12-31T14:41:08;24.27;;;18.10;;
65463;SDS011;52063;45.110;9.870;2022-12-31T14:43:47;24.85;;;18.17;;
65463;SDS011;52063;45.110;9.870;2022-12-31T14:46:35;24.40;;;17.67;;
65463;SDS011;52063;45.110;9.870;2022-12-31T14:54:40;22.98;;;17.25;;
65463;SDS011;52063;45.110;9.870;2022-12-31T14:57:25;22.15;;;16.95;;
65463;SDS011;52063;45.110;9.870;2022-12-31T14:59:56;23.17;;;16.63;;
65463;SDS011;52063;45.110;9.870;2022-12-31T15:02:27;24.38;;;18.10;;
65463;SDS011;52063;45.110;9.870;2022-12-31T15:23:58;21.20;;;16.50;;
65463;SDS011;52063;45.110;9.870;2022-12-31T15:26:25;21.60;;;15.90;;
65463;SDS011;52063;45.110;9.870;2022-12-31T15:28:56;19.38;;;15.70;;
65463;SDS011;52063;45.110;9.870;2022-12-31T15:31:33;21.02;;;15.63;;
65463;SDS011;52063;45.110;9.870;2022-12-31T15:36:30;18.87;;;15.03;;
65463;SDS011;52063;45.110;9.870;2022-12-31T15:39:03;21.70;;;16.02;;
65463;SDS011;52063;45.110;9.870;2022-12-31T15:41:39;22.38;;;15.55;;
65463;SDS011;52063;45.110;9.870;2022-12-31T15:46:49;19.73;;;15.63;;
65463;SDS011;52063;45.110;9.870;2022-12-31T15:49:20;18.37;;;15.17;;
65463;SDS011;52063;45.110;9.870;2022-12-31T15:51:49;19.80;;;15.68;;
65463;SDS011;52063;45.110;9.870;2022-12-31T15:54:22;20.77;;;15.73;;
65463;SDS011;52063;45.110;9.870;2022-12-31T15:56:50;18.50;;;14.82;;
65463;SDS011;52063;45.110;9.870;2022-12-31T15:59:17;20.08;;;15.23;;
65463;SDS011;52063;45.110;9.870;2022-12-31T16:01:43;17.47;;;14.93;;
65463;SDS011;52063;45.110;9.870;2022-12-31T16:06:43;20.67;;;15.88;;
65463;SDS011;52063;45.110;9.870;2022-12-31T16:09:16;19.95;;;15.40;;
65463;SDS011;52063;45.110;9.870;2022-12-31T16:11:44;18.67;;;14.27;;
65463;SDS011;52063;45.110;9.870;2022-12-31T16:14:14;17.60;;;14.23;;
65463;SDS011;52063;45.110;9.870;2022-12-31T16:16:50;19.02;;;14.20;;
65463;SDS011;52063;45.110;9.870;2022-12-31T16:22:07;17.15;;;13.95;;
65463;SDS011;52063;45.110;9.870;2022-12-31T16:24:58;16.37;;;13.67;;
65463;SDS011;52063;45.110;9.870;2022-12-31T16:27:28;17.88;;;13.02;;
65463;SDS011;52063;45.110;9.870;2022-12-31T16:29:58;16.98;;;13.43;;
65463;SDS011;52063;45.110;9.870;2022-12-31T16:32:26;15.10;;;12.65;;
65463;SDS011;52063;45.110;9.870;2022-12-31T16:35:26;16.85;;;13.10;;
65463;SDS011;52063;45.110;9.870;2022-12-31T16:43:28;290.00;;;147.00;;
65463;SDS011;52063;45.110;9.870;2022-12-31T16:46:05;204.00;;;105.15;;
65463;SDS011;52063;45.110;9.870;2022-12-31T16:48:53;166.38;;;90.45;;
65463;SDS011;52063;45.110;9.870;2022-12-31T16:51:21;167.50;;;91.57;;
65463;SDS011;52063;45.110;9.870;2022-12-31T16:53:48;152.80;;;84.15;;
65463;SDS011;52063;45.110;9.870;2022-12-31T16:56:25;133.75;;;73.63;;
65463;SDS011;52063;45.110;9.870;2022-12-31T16:58:57;128.63;;;68.70;;
65463;SDS011;52063;45.110;9.870;2022-12-31T17:01:26;116.50;;;64.53;;
65463;SDS011;52063;45.110;9.870;2022-12-31T17:03:54;116.33;;;61.27;;
65463;SDS011;52063;45.110;9.870;2022-12-31T17:06:25;103.60;;;56.97;;
65463;SDS011;52063;45.110;9.870;2022-12-31T17:14:14;87.00;;;47.97;;
65463;SDS011;52063;45.110;9.870;2022-12-31T17:16:57;92.50;;;56.87;;
65463;SDS011;52063;45.110;9.870;2022-12-31T17:22:01;261.00;;;138.55;;
65463;SDS011;52063;45.110;9.870;2022-12-31T17:24:27;227.00;;;121.32;;
65463;SDS011;52063;45.110;9.870;2022-12-31T17:26:53;209.73;;;109.70;;
65463;SDS011;52063;45.110;9.870;2022-12-31T17:29:19;193.52;;;103.55;;
65463;SDS011;52063;45.110;9.870;2022-12-31T17:31:59;173.02;;;92.30;;
65463;SDS011;52063;45.110;9.870;2022-12-31T17:34:30;163.90;;;88.93;;
65463;SDS011;52063;45.110;9.870;2022-12-31T17:39:38;144.32;;;79.15;;
65463;SDS011;52063;45.110;9.870;2022-12-31T17:42:09;147.30;;;82.57;;
65463;SDS011;52063;45.110;9.870;2022-12-31T17:44:36;150.23;;;80.85;;
65463;SDS011;52063;45.110;9.870;2022-12-31T17:47:04;137.57;;;75.97;;
65463;SDS011;52063;45.110;9.870;2022-12-31T17:49:32;139.05;;;74.75;;
65463;SDS011;52063;45.110;9.870;2022-12-31T17:51:58;129.63;;;71.60;;
65463;SDS011;52063;45.110;9.870;2022-12-31T17:54:24;116.70;;;64.23;;
65463;SDS011;52063;45.110;9.870;2022-12-31T17:56:50;110.57;;;59.63;;
65463;SDS011;52063;45.110;9.870;2022-12-31T17:59:17;107.13;;;57.20;;
65463;SDS011;52063;45.110;9.870;2022-12-31T18:01:45;105.20;;;58.17;;
65463;SDS011;52063;45.110;9.870;2022-12-31T18:04:12;96.78;;;53.17;;
65463;SDS011;52063;45.110;9.870;2022-12-31T18:06:38;97.28;;;54.58;;
65463;SDS011;52063;45.110;9.870;2022-12-31T18:09:04;99.50;;;54.67;;
65463;SDS011;52063;45.110;9.870;2022-12-31T18:11:29;95.00;;;52.47;;
65463;SDS011;52063;45.110;9.870;2022-12-31T18:13:54;87.73;;;49.87;;
65463;SDS011;52063;45.110;9.870;2022-12-31T18:16:20;87.73;;;49.90;;
65463;SDS011;52063;45.110;9.870;2022-12-31T18:18:45;86.27;;;47.77;;
65463;SDS011;52063;45.110;9.870;2022-12-31T18:21:15;85.10;;;47.47;;
65463;SDS011;52063;45.110;9.870;2022-12-31T18:23:44;83.35;;;45.92;;
65463;SDS011;52063;45.110;9.870;2022-12-31T18:26:12;81.80;;;43.67;;
65463;SDS011;52063;45.110;9.870;2022-12-31T18:28:39;76.90;;;42.92;;
65463;SDS011;52063;45.110;9.870;2022-12-31T18:31:04;76.85;;;45.08;;
65463;SDS011;52063;45.110;9.870;2022-12-31T18:33:30;76.07;;;43.23;;
65463;SDS011;52063;45.110;9.870;2022-12-31T18:35:55;75.17;;;42.33;;
65463;SDS011;52063;45.110;9.870;2022-12-31T18:38:21;69.13;;;41.27;;
65463;SDS011;52063;45.110;9.870;2022-12-31T18:40:49;71.47;;;40.00;;
65463;SDS011;52063;45.110;9.870;2022-12-31T18:43:18;70.88;;;38.35;;
65463;SDS011;52063;45.110;9.870;2022-12-31T18:45:44;64.53;;;36.73;;
65463;SDS011;52063;45.110;9.870;2022-12-31T18:48:10;68.25;;;40.35;;
65463;SDS011;52063;45.110;9.870;2022-12-31T18:50:37;64.90;;;37.63;;
65463;SDS011;52063;45.110;9.870;2022-12-31T18:53:03;65.80;;;37.85;;
65463;SDS011;52063;45.110;9.870;2022-12-31T18:55:37;64.00;;;36.93;;
65463;SDS011;52063;45.110;9.870;2022-12-31T18:58:05;65.63;;;37.08;;
65463;SDS011;52063;45.110;9.870;2022-12-31T19:00:31;62.28;;;34.75;;
65463;SDS011;52063;45.110;9.870;2022-12-31T19:02:57;67.43;;;36.57;;
65463;SDS011;52063;45.110;9.870;2022-12-31T19:07:48;65.27;;;37.93;;
65463;SDS011;52063;45.110;9.870;2022-12-31T19:10:14;62.10;;;35.33;;
65463;SDS011;52063;45.110;9.870;2022-12-31T19:12:40;61.60;;;34.85;;
65463;SDS011;52063;45.110;9.870;2022-12-31T19:15:20;60.72;;;35.55;;
65463;SDS011;52063;45.110;9.870;2022-12-31T19:17:57;61.63;;;32.60;;
65463;SDS011;52063;45.110;9.870;2022-12-31T19:20:23;56.23;;;32.80;;
65463;SDS011;52063;45.110;9.870;2022-12-31T19:22:49;53.50;;;30.30;;
65463;SDS011;52063;45.110;9.870;2022-12-31T19:25:22;55.50;;;31.17;;
65463;SDS011;52063;45.110;9.870;2022-12-31T19:27:51;55.65;;;30.25;;
65463;SDS011;52063;45.110;9.870;2022-12-31T19:32:42;55.40;;;29.77;;
65463;SDS011;52063;45.110;9.870;2022-12-31T19:35:10;56.10;;;29.87;;
65463;SDS011;52063;45.110;9.870;2022-12-31T19:37:36;45.80;;;27.25;;
65463;SDS011;52063;45.110;9.870;2022-12-31T19:40:02;46.47;;;27.23;;